Airfield :
LOGIN :

Register | Disclaimer

   EN    FR    IT 

 










Legend :    VFR   Marginal VFR   IFR   Intensive IFR   Very Intensive IFR
Visi :
Ceiling :
>= 8 km
>= 3000ft
5 to 8 km
1000 to 3000 ft
1500m to 5 km
500 to 1000 ft
800 to 1500m
200 to 500 ft
< 800m
< 200 ft
Symbols :   Thunderstorms  Fog  Heavy snow  Heavy precipitations  Wind > 20 kt
SIGMETs :     Misc.  Thunderstorms  Icing  Turbulence  Mountain Waves  Volcanic Ashes







- Airport Elevation : 233 ft
- IATA code : REU


LERS - Reus Tarragona

CURRENT METAR :
  • 212230Z AUTO VRB02KT 9999 NCD 23/19 Q1015

EXPIRED METARs :
  • 212200Z VRB01KT 9999 FEW030 23/19 Q1015
  • 212130Z 00000KT 9999 FEW030 23/19 Q1015
  • 212100Z 22002KT 9999 FEW030 23/19 Q1015
  • 212030Z 23003KT 9999 FEW030 24/20 Q1014
  • 212000Z 21003KT 180V240 9999 FEW030 25/20 Q1014

TAF TAF LERS
Valid from the 21 at 21:00 until the 22 at 21:00 UTC


212000Z 2121/2221 VRB03KT 9999 FEW030 TX27/2213Z TN18/2205Z
TEMPO 2200/2216 3000 SHRA SCT018CB BKN020
PROB40
TEMPO 2205/2216 2000 +TSRA
PROB40
TEMPO 2208/2214 27015G25KT
TEMPO 2214/2218 18008KT
No reported NOTAMs for that airfield.



MET'MAP, your aeronautical weather chart ! - Copyright ORBIFLY December 2007 - Disclaimer

ORBIFLY MET'MAP TEAM :

Programming & Development : Alexandra Zaïnal
Concept & Development : Baudouin d'Aumeries
Co-Development & Prog : Marc-Olivier Méhu
Technical & hardware support : Manuel Goepfert

Contact : metmap@orbifly.com




SOURCES & CREDITS :

   NOAA